createdAt,value
2023-05-07T00:00:22.101Z,0.00
2023-05-07T00:01:22.072Z,0.00
2023-05-07T00:02:22.210Z,0.00
2023-05-07T00:03:22.098Z,0.00
2023-05-07T00:04:22.165Z,0.00
2023-05-07T00:05:22.026Z,0.00
2023-05-07T00:06:22.018Z,0.00
2023-05-07T00:07:22.027Z,0.00
2023-05-07T00:08:22.001Z,0.00
2023-05-07T00:09:21.980Z,0.00
2023-05-07T00:10:21.982Z,0.00
2023-05-07T00:11:21.958Z,0.00
2023-05-07T00:12:21.956Z,0.00
2023-05-07T00:13:22.084Z,0.00
2023-05-07T00:14:21.932Z,0.00
2023-05-07T00:15:21.931Z,0.00
2023-05-07T00:16:21.923Z,0.00
2023-05-07T00:17:21.931Z,0.00
2023-05-07T00:18:21.907Z,0.00
2023-05-07T00:19:21.872Z,0.00
2023-05-07T00:20:21.873Z,0.00
2023-05-07T00:21:21.849Z,0.00
2023-05-07T00:22:21.839Z,0.00
2023-05-07T00:23:21.823Z,0.00
2023-05-07T00:24:21.817Z,0.00
2023-05-07T00:25:21.820Z,0.00
2023-05-07T00:26:21.798Z,0.00
2023-05-07T00:27:21.790Z,0.00
2023-05-07T00:28:21.774Z,0.00
2023-05-07T00:29:21.757Z,0.00
2023-05-07T00:30:21.770Z,0.00
2023-05-07T00:31:21.807Z,0.00
2023-05-07T00:32:21.769Z,0.00
2023-05-07T00:33:21.721Z,0.00
2023-05-07T00:34:21.802Z,0.00
2023-05-07T00:35:21.713Z,0.00
2023-05-07T00:36:21.699Z,0.00
2023-05-07T00:37:21.689Z,0.00
2023-05-07T00:38:21.663Z,0.00
2023-05-07T00:39:21.647Z,0.00
2023-05-07T00:40:21.655Z,0.00
2023-05-07T00:41:21.627Z,0.00
2023-05-07T00:42:28.619Z,0.00
2023-05-07T00:43:21.622Z,0.00
2023-05-07T00:44:21.597Z,0.00
2023-05-07T00:45:21.600Z,0.00
2023-05-07T00:46:21.650Z,0.00
2023-05-07T00:47:21.562Z,0.00
2023-05-07T00:48:21.555Z,0.00
2023-05-07T00:49:21.545Z,0.00
2023-05-07T00:50:21.623Z,0.00
2023-05-07T00:51:21.547Z,0.00
2023-05-07T00:52:21.504Z,0.00
2023-05-07T00:53:21.498Z,0.00
2023-05-07T00:54:21.497Z,0.00
2023-05-07T00:55:21.472Z,0.00
2023-05-07T00:56:21.474Z,0.00
2023-05-07T00:57:21.474Z,0.00
2023-05-07T00:58:21.445Z,0.00
2023-05-07T00:59:21.492Z,0.00
2023-05-07T01:00:21.429Z,0.00
2023-05-07T01:01:21.464Z,0.00
2023-05-07T01:02:21.474Z,0.00
2023-05-07T01:03:21.398Z,0.00
2023-05-07T01:04:21.403Z,0.00
2023-05-07T01:05:21.363Z,0.00
2023-05-07T01:06:21.462Z,0.00
2023-05-07T01:07:21.387Z,0.00
2023-05-07T01:08:21.334Z,0.00
2023-05-07T01:09:21.332Z,0.00
2023-05-07T01:10:21.314Z,0.00
2023-05-07T01:11:21.327Z,0.00
2023-05-07T01:12:21.321Z,0.00
2023-05-07T01:13:21.437Z,0.00
2023-05-07T01:14:21.277Z,0.00
2023-05-07T01:15:21.308Z,0.00
2023-05-07T01:16:21.401Z,0.00
2023-05-07T01:17:21.283Z,0.00
2023-05-07T01:18:21.245Z,0.00
2023-05-07T01:19:21.214Z,0.00
2023-05-07T01:20:21.207Z,0.00
2023-05-07T01:21:21.187Z,0.00
2023-05-07T01:22:21.291Z,0.00
2023-05-07T01:23:21.166Z,0.00
2023-05-07T01:24:21.163Z,0.00
2023-05-07T01:25:21.160Z,0.00
2023-05-07T01:26:21.153Z,0.00
2023-05-07T01:27:21.146Z,0.00
2023-05-07T01:28:21.135Z,0.00
2023-05-07T01:29:21.119Z,0.00
2023-05-07T01:30:21.112Z,0.00
2023-05-07T01:31:21.111Z,0.00
2023-05-07T01:32:21.107Z,0.00
2023-05-07T01:33:21.056Z,0.00
2023-05-07T01:34:21.063Z,0.00
2023-05-07T01:35:21.039Z,0.00
2023-05-07T01:36:21.025Z,0.00
2023-05-07T01:37:21.024Z,0.00
2023-05-07T01:38:21.099Z,0.00
2023-05-07T01:39:20.992Z,0.00
2023-05-07T01:40:20.979Z,0.00
2023-05-07T01:41:20.965Z,0.00
2023-05-07T01:42:20.985Z,0.00
2023-05-07T01:43:20.971Z,0.00
2023-05-07T01:44:20.943Z,0.00
2023-05-07T01:45:20.921Z,0.00
2023-05-07T01:46:20.968Z,0.00
2023-05-07T01:47:20.931Z,0.00
2023-05-07T01:48:20.899Z,0.00
2023-05-07T01:49:20.876Z,0.00
2023-05-07T01:50:20.867Z,0.00
2023-05-07T01:51:20.853Z,0.00
2023-05-07T01:52:20.863Z,0.00
2023-05-07T01:53:20.832Z,0.00
2023-05-07T01:54:20.931Z,0.00
2023-05-07T01:55:20.832Z,0.00
2023-05-07T01:56:20.817Z,0.00
2023-05-07T01:57:20.788Z,0.00
2023-05-07T01:58:20.803Z,0.00
2023-05-07T01:59:20.766Z,0.00
2023-05-07T02:00:20.758Z,0.00
2023-05-07T02:01:20.837Z,0.00
2023-05-07T02:02:20.775Z,0.00
2023-05-07T02:03:20.837Z,0.00
2023-05-07T02:04:20.715Z,0.00
2023-05-07T02:05:20.704Z,0.00
2023-05-07T02:06:20.698Z,0.00
2023-05-07T02:07:20.687Z,0.00
2023-05-07T02:08:20.688Z,0.00
2023-05-07T02:09:20.655Z,0.00
2023-05-07T02:10:20.666Z,0.00
2023-05-07T02:11:20.637Z,0.00
2023-05-07T02:12:20.638Z,0.00
2023-05-07T02:13:20.709Z,0.00
2023-05-07T02:14:20.616Z,0.00
2023-05-07T02:15:20.590Z,0.00
2023-05-07T02:16:20.653Z,0.00
2023-05-07T02:17:20.583Z,0.00
2023-05-07T02:18:20.579Z,0.00
2023-05-07T02:19:20.574Z,0.00
2023-05-07T02:20:20.547Z,0.00
2023-05-07T02:21:20.538Z,0.00
2023-05-07T02:22:20.531Z,0.00
2023-05-07T02:23:20.505Z,0.00
2023-05-07T02:24:20.511Z,0.00
2023-05-07T02:25:20.500Z,0.00
2023-05-07T02:26:20.505Z,0.00
2023-05-07T02:27:20.468Z,0.00
2023-05-07T02:28:20.456Z,0.00
2023-05-07T02:29:20.465Z,0.00
2023-05-07T02:30:20.436Z,0.00
2023-05-07T02:31:20.458Z,0.00
2023-05-07T02:32:20.424Z,0.00
2023-05-07T02:33:20.400Z,0.00
2023-05-07T02:34:20.406Z,0.00
2023-05-07T02:35:20.377Z,0.00
2023-05-07T02:36:20.369Z,0.00
2023-05-07T02:37:20.380Z,0.00
2023-05-07T02:38:20.348Z,0.00
2023-05-07T02:39:20.333Z,0.00
2023-05-07T02:40:20.335Z,0.00
2023-05-07T02:41:20.312Z,0.00
2023-05-07T02:42:20.416Z,0.00
2023-05-07T02:43:27.881Z,0.00
2023-05-07T02:44:20.294Z,0.00
2023-05-07T02:45:20.267Z,0.00
2023-05-07T02:46:20.276Z,0.00
2023-05-07T02:47:20.257Z,0.00
2023-05-07T02:48:20.237Z,0.00
2023-05-07T02:49:20.240Z,0.00
2023-05-07T02:50:20.221Z,0.00
2023-05-07T02:51:20.203Z,0.00
2023-05-07T02:52:20.209Z,0.00
2023-05-07T02:53:20.184Z,0.00
2023-05-07T02:54:20.177Z,0.00
2023-05-07T02:55:20.161Z,0.00
2023-05-07T02:56:20.149Z,0.00
2023-05-07T02:57:20.154Z,0.00
2023-05-07T02:58:20.234Z,0.00
2023-05-07T02:59:20.119Z,0.00
2023-05-07T03:00:20.134Z,0.00
2023-05-07T03:01:20.104Z,0.00
2023-05-07T03:02:20.114Z,0.00
2023-05-07T03:03:20.085Z,0.00
2023-05-07T03:04:20.108Z,0.00
2023-05-07T03:05:20.067Z,0.00
2023-05-07T03:06:20.052Z,0.00
2023-05-07T03:07:20.041Z,0.00
2023-05-07T03:08:20.033Z,0.00
2023-05-07T03:09:20.015Z,0.00
2023-05-07T03:10:20.013Z,0.00
2023-05-07T03:11:19.984Z,0.00
2023-05-07T03:12:19.982Z,0.00
2023-05-07T03:13:20.066Z,0.00
2023-05-07T03:14:20.046Z,0.00
2023-05-07T03:15:19.958Z,0.00
2023-05-07T03:16:20.015Z,4.00
2023-05-07T03:17:19.922Z,4.00
2023-05-07T03:18:20.053Z,0.00
2023-05-07T03:19:19.901Z,0.00
2023-05-07T03:20:19.977Z,4.00
2023-05-07T03:21:19.886Z,4.00
2023-05-07T03:22:19.878Z,0.00
2023-05-07T03:23:19.975Z,4.00
2023-05-07T03:24:19.849Z,4.00
2023-05-07T03:25:19.846Z,4.00
2023-05-07T03:26:19.836Z,8.00
2023-05-07T03:27:19.805Z,4.00
2023-05-07T03:28:19.817Z,8.00
2023-05-07T03:29:19.791Z,8.00
2023-05-07T03:30:20.101Z,8.00
2023-05-07T03:31:19.806Z,12.00
2023-05-07T03:32:19.792Z,12.00
2023-05-07T03:33:19.761Z,12.00
2023-05-07T03:34:19.744Z,16.00
2023-05-07T03:35:19.739Z,16.00
2023-05-07T03:36:19.711Z,20.00
2023-05-07T03:37:19.708Z,24.00
2023-05-07T03:38:19.693Z,28.00
2023-05-07T03:39:19.678Z,28.00
2023-05-07T03:40:19.679Z,32.00
2023-05-07T03:41:19.677Z,32.00
2023-05-07T03:42:19.647Z,36.00
2023-05-07T03:43:19.635Z,44.00
2023-05-07T03:44:19.641Z,48.00
2023-05-07T03:45:19.620Z,52.00
2023-05-07T03:46:19.776Z,56.00
2023-05-07T03:47:19.597Z,60.00
2023-05-07T03:48:19.584Z,64.00
2023-05-07T03:49:19.573Z,68.00
2023-05-07T03:50:19.556Z,76.00
2023-05-07T03:51:19.561Z,84.00
2023-05-07T03:52:19.535Z,88.00
2023-05-07T03:53:19.524Z,100.00
2023-05-07T03:54:19.525Z,108.00
2023-05-07T03:55:19.508Z,112.00
2023-05-07T03:56:19.822Z,124.00
2023-05-07T03:57:19.503Z,132.00
2023-05-07T03:58:19.492Z,136.00
2023-05-07T03:59:19.462Z,144.00
2023-05-07T04:00:19.458Z,152.00
2023-05-07T04:01:19.466Z,160.00
2023-05-07T04:02:19.632Z,168.00
2023-05-07T04:03:19.484Z,172.00
2023-05-07T04:04:19.630Z,184.00
2023-05-07T04:05:19.402Z,192.00
2023-05-07T04:06:19.398Z,208.00
2023-05-07T04:07:19.410Z,220.00
2023-05-07T04:08:19.368Z,228.00
2023-05-07T04:09:19.386Z,236.00
2023-05-07T04:10:19.345Z,248.00
2023-05-07T04:11:19.357Z,256.00
2023-05-07T04:12:19.329Z,260.00
2023-05-07T04:13:19.404Z,260.00
2023-05-07T04:14:19.314Z,264.00
2023-05-07T04:15:19.298Z,272.00
2023-05-07T04:16:19.299Z,280.00
2023-05-07T04:17:19.303Z,288.00
2023-05-07T04:18:19.356Z,288.00
2023-05-07T04:19:19.255Z,296.00
2023-05-07T04:20:19.241Z,304.00
2023-05-07T04:21:19.253Z,316.00
2023-05-07T04:22:19.215Z,324.00
2023-05-07T04:23:19.214Z,324.00
2023-05-07T04:24:19.207Z,320.00
2023-05-07T04:25:19.210Z,312.00
2023-05-07T04:26:19.194Z,304.00
2023-05-07T04:27:19.174Z,296.00
2023-05-07T04:28:19.147Z,296.00
2023-05-07T04:29:19.153Z,300.00
2023-05-07T04:30:19.129Z,316.00
2023-05-07T04:31:19.131Z,336.00
2023-05-07T04:32:19.162Z,364.00
2023-05-07T04:33:19.113Z,392.00
2023-05-07T04:34:19.128Z,416.00
2023-05-07T04:35:19.079Z,440.00
2023-05-07T04:36:19.061Z,464.00
2023-05-07T04:37:19.066Z,488.00
2023-05-07T04:38:19.048Z,516.00
2023-05-07T04:39:19.034Z,536.00
2023-05-07T04:40:19.016Z,556.00
2023-05-07T04:41:19.009Z,580.00
2023-05-07T04:42:18.994Z,608.00
2023-05-07T04:43:19.002Z,640.00
2023-05-07T04:44:26.477Z,680.00
2023-05-07T04:45:18.962Z,720.00
2023-05-07T04:46:19.006Z,768.00
2023-05-07T04:47:18.944Z,812.00
2023-05-07T04:48:18.938Z,856.00
2023-05-07T04:49:18.939Z,900.00
2023-05-07T04:50:19.004Z,944.00
2023-05-07T04:51:18.899Z,992.00
2023-05-07T04:52:18.884Z,1048.00
2023-05-07T04:53:18.879Z,1100.00
2023-05-07T04:54:18.873Z,1152.00
2023-05-07T04:55:18.860Z,1204.00
2023-05-07T04:56:18.846Z,1256.00
2023-05-07T04:57:18.835Z,1312.00
2023-05-07T04:58:18.830Z,1376.00
2023-05-07T04:59:18.819Z,1452.00
2023-05-07T05:00:18.805Z,1528.00
2023-05-07T05:01:18.831Z,1608.00
2023-05-07T05:02:20.716Z,1676.00
2023-05-07T05:03:18.894Z,1740.00
2023-05-07T05:04:18.758Z,1788.00
2023-05-07T05:05:18.750Z,1836.00
2023-05-07T05:06:18.759Z,1872.00
2023-05-07T05:07:18.764Z,1900.00
2023-05-07T05:08:18.716Z,1920.00
2023-05-07T05:09:18.704Z,1932.00
2023-05-07T05:10:18.703Z,1940.00
2023-05-07T05:11:18.684Z,1960.00
2023-05-07T05:12:18.686Z,1976.00
2023-05-07T05:13:18.856Z,2000.00
2023-05-07T05:14:18.655Z,2032.00
2023-05-07T05:15:18.660Z,2084.00
2023-05-07T05:16:18.662Z,2144.00
2023-05-07T05:17:18.629Z,2220.00
2023-05-07T05:18:18.609Z,2288.00
2023-05-07T05:19:18.614Z,2356.00
2023-05-07T05:20:18.594Z,2416.00
2023-05-07T05:21:18.584Z,2472.00
2023-05-07T05:22:18.604Z,2508.00
2023-05-07T05:23:18.557Z,2540.00
2023-05-07T05:24:18.541Z,2572.00
2023-05-07T05:25:18.534Z,2604.00
2023-05-07T05:26:18.517Z,2644.00
2023-05-07T05:27:18.509Z,2684.00
2023-05-07T05:28:18.508Z,2728.00
2023-05-07T05:29:18.502Z,2760.00
2023-05-07T05:30:18.475Z,2796.00
2023-05-07T05:31:18.484Z,2832.00
2023-05-07T05:32:18.452Z,2876.00
2023-05-07T05:33:18.446Z,2940.00
2023-05-07T05:34:18.440Z,3008.00
2023-05-07T05:35:18.421Z,3088.00
2023-05-07T05:36:18.411Z,3172.00
2023-05-07T05:37:18.425Z,3272.00
2023-05-07T05:38:18.492Z,3372.00
2023-05-07T05:39:18.384Z,3468.00
2023-05-07T05:40:18.370Z,3564.00
2023-05-07T05:41:18.359Z,3644.00
2023-05-07T05:42:18.360Z,3716.00
2023-05-07T05:43:18.335Z,3756.00
2023-05-07T05:44:18.323Z,3788.00
2023-05-07T05:45:18.316Z,3824.00
2023-05-07T05:46:18.353Z,3884.00
2023-05-07T05:47:18.304Z,3960.00
2023-05-07T05:48:18.530Z,4048.00
2023-05-07T05:49:18.282Z,4144.00
2023-05-07T05:50:18.258Z,4228.00
2023-05-07T05:51:18.292Z,4288.00
2023-05-07T05:52:20.259Z,4300.00
2023-05-07T05:53:18.227Z,4272.00
2023-05-07T05:54:18.302Z,4216.00
2023-05-07T05:55:18.202Z,4132.00
2023-05-07T05:56:18.199Z,4072.00
2023-05-07T05:57:18.193Z,4020.00
2023-05-07T05:58:18.182Z,3980.00
2023-05-07T05:59:18.167Z,3944.00
2023-05-07T06:00:18.161Z,3912.00
2023-05-07T06:01:18.133Z,3892.00
2023-05-07T06:02:18.168Z,3876.00
2023-05-07T06:03:18.142Z,3840.00
2023-05-07T06:04:18.105Z,3792.00
2023-05-07T06:05:18.158Z,3744.00
2023-05-07T06:06:18.073Z,3688.00
2023-05-07T06:07:18.088Z,3656.00
2023-05-07T06:08:18.072Z,3652.00
2023-05-07T06:09:18.079Z,3668.00
2023-05-07T06:10:18.086Z,3700.00
2023-05-07T06:11:18.026Z,3756.00
2023-05-07T06:12:18.035Z,3796.00
2023-05-07T06:13:18.603Z,3844.00
2023-05-07T06:14:18.000Z,3872.00
2023-05-07T06:15:17.985Z,3900.00
2023-05-07T06:16:18.021Z,3932.00
2023-05-07T06:17:20.217Z,3976.00
2023-05-07T06:18:17.942Z,4032.00
2023-05-07T06:19:17.933Z,4096.00
2023-05-07T06:20:17.935Z,4144.00
2023-05-07T06:21:17.943Z,4172.00
2023-05-07T06:22:17.900Z,4168.00
2023-05-07T06:23:18.300Z,4140.00
2023-05-07T06:24:17.882Z,4124.00
2023-05-07T06:25:17.883Z,4100.00
2023-05-07T06:26:17.942Z,4072.00
2023-05-07T06:27:17.855Z,4052.00
2023-05-07T06:28:17.834Z,4036.00
2023-05-07T06:29:17.827Z,4032.00
2023-05-07T06:30:17.820Z,4028.00
2023-05-07T06:31:17.974Z,4048.00
2023-05-07T06:32:17.796Z,4076.00
2023-05-07T06:33:17.809Z,4104.00
2023-05-07T06:34:17.781Z,4168.00
2023-05-07T06:35:17.770Z,4260.00
2023-05-07T06:36:17.765Z,4396.00
2023-05-07T06:37:17.745Z,4580.00
2023-05-07T06:38:17.732Z,4796.00
2023-05-07T06:39:17.712Z,5024.00
2023-05-07T06:40:17.707Z,5280.00
2023-05-07T06:41:17.709Z,5568.00
2023-05-07T06:42:17.781Z,5900.00
2023-05-07T06:43:17.699Z,6248.00
2023-05-07T06:44:17.680Z,6620.00
2023-05-07T06:45:25.165Z,7044.00
2023-05-07T06:46:17.710Z,7512.00
2023-05-07T06:47:17.639Z,7984.00
2023-05-07T06:48:17.629Z,8348.00
2023-05-07T06:49:17.605Z,8792.00
2023-05-07T06:50:17.599Z,10028.00
2023-05-07T06:51:17.582Z,9060.00
2023-05-07T06:52:17.580Z,9248.00
2023-05-07T06:53:17.555Z,8952.00
2023-05-07T06:54:17.556Z,9084.00
2023-05-07T06:55:17.562Z,9160.00
2023-05-07T06:56:17.535Z,9180.00
2023-05-07T06:57:17.519Z,9060.00
2023-05-07T06:58:17.619Z,8948.00
2023-05-07T06:59:17.496Z,8684.00
2023-05-07T07:00:17.481Z,8368.00
2023-05-07T07:01:17.626Z,8100.00
2023-05-07T07:02:18.498Z,7804.00
2023-05-07T07:03:17.460Z,7504.00
2023-05-07T07:04:17.467Z,7276.00
2023-05-07T07:05:17.427Z,7148.00
2023-05-07T07:06:17.423Z,7112.00
2023-05-07T07:07:17.401Z,7184.00
2023-05-07T07:08:17.405Z,7300.00
2023-05-07T07:09:17.383Z,7396.00
2023-05-07T07:10:17.377Z,7412.00
2023-05-07T07:11:17.361Z,7328.00
2023-05-07T07:12:17.348Z,7208.00
2023-05-07T07:13:17.438Z,7088.00
2023-05-07T07:14:17.415Z,6972.00
2023-05-07T07:15:17.332Z,6884.00
2023-05-07T07:16:17.322Z,6792.00
2023-05-07T07:17:17.331Z,6740.00
2023-05-07T07:18:17.281Z,6712.00
2023-05-07T07:19:17.282Z,6612.00
2023-05-07T07:20:17.488Z,6596.00
2023-05-07T07:21:17.247Z,6584.00
2023-05-07T07:22:17.233Z,6576.00
2023-05-07T07:23:17.225Z,6584.00
2023-05-07T07:24:17.230Z,6592.00
2023-05-07T07:25:17.205Z,6604.00
2023-05-07T07:26:17.213Z,6640.00
2023-05-07T07:27:17.201Z,6708.00
2023-05-07T07:28:17.177Z,6808.00
2023-05-07T07:29:17.171Z,6924.00
2023-05-07T07:30:17.388Z,7032.00
2023-05-07T07:31:17.182Z,7128.00
2023-05-07T07:32:17.126Z,7220.00
2023-05-07T07:33:17.128Z,7284.00
2023-05-07T07:34:17.102Z,7284.00
2023-05-07T07:35:17.094Z,7228.00
2023-05-07T07:36:17.091Z,7136.00
2023-05-07T07:37:17.071Z,6984.00
2023-05-07T07:38:17.071Z,6828.00
2023-05-07T07:39:17.080Z,6680.00
2023-05-07T07:40:17.047Z,6548.00
2023-05-07T07:41:17.046Z,6444.00
2023-05-07T07:42:17.154Z,6412.00
2023-05-07T07:43:17.008Z,6456.00
2023-05-07T07:44:17.009Z,6580.00
2023-05-07T07:45:17.019Z,6768.00
2023-05-07T07:46:17.164Z,6996.00
2023-05-07T07:47:17.004Z,7252.00
2023-05-07T07:48:16.952Z,7500.00
2023-05-07T07:49:16.955Z,7716.00
2023-05-07T07:50:28.709Z,7900.00
2023-05-07T07:51:16.924Z,8064.00
2023-05-07T07:52:16.909Z,8232.00
2023-05-07T07:53:16.908Z,8376.00
2023-05-07T07:54:16.887Z,8512.00
2023-05-07T07:55:16.893Z,8616.00
2023-05-07T07:56:16.871Z,8704.00
2023-05-07T07:57:16.855Z,8812.00
2023-05-07T07:58:16.853Z,8968.00
2023-05-07T07:59:16.834Z,9184.00
2023-05-07T08:00:16.826Z,9440.00
2023-05-07T08:01:16.806Z,9796.00
2023-05-07T08:02:16.997Z,10236.00
2023-05-07T08:03:16.890Z,10712.00
2023-05-07T08:04:16.934Z,11168.00
2023-05-07T08:05:16.784Z,11616.00
2023-05-07T08:06:16.775Z,12124.00
2023-05-07T08:07:16.747Z,12596.00
2023-05-07T08:08:16.738Z,13116.00
2023-05-07T08:09:16.721Z,13840.00
2023-05-07T08:10:16.718Z,14252.00
2023-05-07T08:11:16.743Z,13968.00
2023-05-07T08:12:16.704Z,14140.00
2023-05-07T08:13:16.728Z,14568.00
2023-05-07T08:14:16.682Z,14412.00
2023-05-07T08:15:16.656Z,14472.00
2023-05-07T08:16:16.697Z,14616.00
2023-05-07T08:17:16.686Z,14744.00
2023-05-07T08:18:16.867Z,15068.00
2023-05-07T08:19:16.623Z,15448.00
2023-05-07T08:20:16.613Z,15284.00
2023-05-07T08:21:16.613Z,15400.00
2023-05-07T08:22:16.589Z,15388.00
2023-05-07T08:23:16.684Z,15620.00
2023-05-07T08:24:16.576Z,15564.00
2023-05-07T08:25:16.552Z,15876.00
2023-05-07T08:26:16.554Z,16544.00
2023-05-07T08:27:16.544Z,17024.00
2023-05-07T08:28:16.525Z,17440.00
2023-05-07T08:29:16.520Z,17856.00
2023-05-07T08:30:16.531Z,18304.00
2023-05-07T08:31:16.557Z,18368.00
2023-05-07T08:32:16.498Z,17984.00
2023-05-07T08:33:16.470Z,18528.00
2023-05-07T08:34:16.493Z,17888.00
2023-05-07T08:35:16.444Z,17376.00
2023-05-07T08:36:16.435Z,17376.00
2023-05-07T08:37:16.423Z,17024.00
2023-05-07T08:38:16.520Z,16864.00
2023-05-07T08:39:16.402Z,16832.00
2023-05-07T08:40:16.779Z,16832.00
2023-05-07T08:41:16.382Z,16736.00
2023-05-07T08:42:16.370Z,16672.00
2023-05-07T08:43:16.365Z,16736.00
2023-05-07T08:44:16.365Z,17760.00
2023-05-07T08:45:16.351Z,16352.00
2023-05-07T08:46:23.902Z,17120.00
2023-05-07T08:47:16.328Z,17344.00
2023-05-07T08:48:16.303Z,17344.00
2023-05-07T08:49:16.287Z,17632.00
2023-05-07T08:50:16.310Z,18336.00
2023-05-07T08:51:16.269Z,18880.00
2023-05-07T08:52:16.271Z,19136.00
2023-05-07T08:53:16.241Z,19008.00
2023-05-07T08:54:16.247Z,18848.00
2023-05-07T08:55:16.280Z,20320.00
2023-05-07T08:56:16.238Z,20512.00
2023-05-07T08:57:16.211Z,20416.00
2023-05-07T08:58:16.206Z,20544.00
2023-05-07T08:59:16.177Z,20832.00
2023-05-07T09:00:16.172Z,20832.00
2023-05-07T09:01:16.222Z,20448.00
2023-05-07T09:02:16.221Z,20640.00
2023-05-07T09:03:16.182Z,21088.00
2023-05-07T09:04:17.044Z,21312.00
2023-05-07T09:05:16.120Z,21504.00
2023-05-07T09:06:16.271Z,21056.00
2023-05-07T09:07:16.091Z,21536.00
2023-05-07T09:08:16.099Z,22304.00
2023-05-07T09:09:16.081Z,23264.00
2023-05-07T09:10:16.069Z,23808.00
2023-05-07T09:11:16.181Z,23648.00
2023-05-07T09:12:16.043Z,24704.00
2023-05-07T09:13:16.130Z,25952.00
2023-05-07T09:14:16.016Z,26176.00
2023-05-07T09:15:16.013Z,26464.00
2023-05-07T09:16:16.038Z,26304.00
2023-05-07T09:17:15.996Z,26464.00
2023-05-07T09:18:16.717Z,26816.00
2023-05-07T09:19:16.672Z,26848.00
2023-05-07T09:20:16.000Z,26976.00
2023-05-07T09:21:16.011Z,27040.00
2023-05-07T09:22:16.035Z,26304.00
2023-05-07T09:23:15.964Z,26176.00
2023-05-07T09:24:15.919Z,25728.00
2023-05-07T09:25:15.895Z,26240.00
2023-05-07T09:26:15.904Z,26272.00
2023-05-07T09:27:15.873Z,25760.00
2023-05-07T09:28:15.864Z,25216.00
2023-05-07T09:29:15.862Z,24192.00
2023-05-07T09:30:15.880Z,24864.00
2023-05-07T09:31:15.883Z,24032.00
2023-05-07T09:32:15.836Z,22720.00
2023-05-07T09:33:15.809Z,22976.00
2023-05-07T09:34:15.819Z,23008.00
2023-05-07T09:35:15.786Z,22304.00
2023-05-07T09:36:15.793Z,21696.00
2023-05-07T09:37:15.769Z,22304.00
2023-05-07T09:38:15.919Z,22304.00
2023-05-07T09:39:15.752Z,22848.00
2023-05-07T09:40:15.732Z,22272.00
2023-05-07T09:41:15.730Z,21984.00
2023-05-07T09:42:15.713Z,20480.00
2023-05-07T09:43:15.707Z,21472.00
2023-05-07T09:44:15.708Z,21600.00
2023-05-07T09:45:15.683Z,21760.00
2023-05-07T09:46:15.806Z,22080.00
2023-05-07T09:47:15.656Z,22080.00
2023-05-07T09:48:15.660Z,20992.00
2023-05-07T09:49:15.634Z,21696.00
2023-05-07T09:50:15.629Z,22592.00
2023-05-07T09:51:15.622Z,23456.00
2023-05-07T09:52:15.615Z,24640.00
2023-05-07T09:53:15.588Z,25024.00
2023-05-07T09:54:15.598Z,25856.00
2023-05-07T09:55:15.586Z,25888.00
2023-05-07T09:56:15.561Z,25632.00
2023-05-07T09:57:15.557Z,24768.00
2023-05-07T09:58:15.538Z,24064.00
2023-05-07T09:59:15.533Z,24160.00
2023-05-07T10:00:15.526Z,24192.00
2023-05-07T10:01:15.572Z,24192.00
2023-05-07T10:02:15.568Z,23904.00
2023-05-07T10:03:15.578Z,23392.00
2023-05-07T10:04:15.480Z,23104.00
2023-05-07T10:05:15.467Z,23136.00
2023-05-07T10:06:15.458Z,23968.00
2023-05-07T10:07:15.429Z,24576.00
2023-05-07T10:08:15.427Z,25280.00
2023-05-07T10:09:15.413Z,25024.00
2023-05-07T10:10:15.517Z,25152.00
2023-05-07T10:11:15.392Z,23744.00
2023-05-07T10:12:15.401Z,23424.00
2023-05-07T10:13:15.426Z,22784.00
2023-05-07T10:14:15.376Z,22848.00
2023-05-07T10:15:15.385Z,22688.00
2023-05-07T10:16:15.344Z,22304.00
2023-05-07T10:17:15.365Z,22496.00
2023-05-07T10:18:15.429Z,22432.00
2023-05-07T10:19:15.307Z,22688.00
2023-05-07T10:20:15.331Z,22688.00
2023-05-07T10:21:15.297Z,23520.00
2023-05-07T10:22:15.281Z,23360.00
2023-05-07T10:23:15.264Z,23616.00
2023-05-07T10:24:15.260Z,23488.00
2023-05-07T10:25:15.245Z,22912.00
2023-05-07T10:26:15.348Z,22336.00
2023-05-07T10:27:15.227Z,22048.00
2023-05-07T10:28:15.253Z,21984.00
2023-05-07T10:29:15.205Z,21248.00
2023-05-07T10:30:15.234Z,20800.00
2023-05-07T10:31:15.220Z,21312.00
2023-05-07T10:32:15.181Z,21728.00
2023-05-07T10:33:15.210Z,22464.00
2023-05-07T10:34:15.146Z,22112.00
2023-05-07T10:35:15.140Z,23584.00
2023-05-07T10:36:15.136Z,24000.00
2023-05-07T10:37:15.113Z,25984.00
2023-05-07T10:38:15.108Z,26176.00
2023-05-07T10:39:15.088Z,26688.00
2023-05-07T10:40:15.181Z,26720.00
2023-05-07T10:41:15.072Z,26976.00
2023-05-07T10:42:15.162Z,26240.00
2023-05-07T10:43:15.065Z,25664.00
2023-05-07T10:44:15.036Z,25120.00
2023-05-07T10:45:15.098Z,24704.00
2023-05-07T10:46:15.061Z,24224.00
2023-05-07T10:47:22.515Z,23232.00
2023-05-07T10:49:14.997Z,23680.00
2023-05-07T10:50:15.025Z,23232.00
2023-05-07T10:51:14.960Z,23328.00
2023-05-07T10:52:14.962Z,23168.00
2023-05-07T10:53:14.937Z,23968.00
2023-05-07T10:54:14.928Z,24128.00
2023-05-07T10:55:14.933Z,23296.00
2023-05-07T10:56:14.925Z,23968.00
2023-05-07T10:57:14.905Z,23872.00
2023-05-07T10:58:27.364Z,23584.00
2023-05-07T10:59:15.926Z,23552.00
2023-05-07T11:00:16.848Z,23168.00
2023-05-07T11:01:14.911Z,22880.00
2023-05-07T11:02:14.897Z,23328.00
2023-05-07T11:03:14.895Z,23296.00
2023-05-07T11:04:14.849Z,23296.00
2023-05-07T11:05:14.944Z,23296.00
2023-05-07T11:06:14.808Z,23360.00
2023-05-07T11:07:14.797Z,23136.00
2023-05-07T11:08:14.772Z,23200.00
2023-05-07T11:09:14.764Z,23808.00
2023-05-07T11:10:14.751Z,23328.00
2023-05-07T11:11:14.751Z,23136.00
2023-05-07T11:12:14.752Z,23136.00
2023-05-07T11:13:14.776Z,22688.00
2023-05-07T11:14:14.893Z,22560.00
2023-05-07T11:15:14.863Z,22656.00
2023-05-07T11:16:14.709Z,22560.00
2023-05-07T11:17:14.683Z,22240.00
2023-05-07T11:18:14.683Z,22784.00
2023-05-07T11:19:14.648Z,22080.00
2023-05-07T11:20:14.642Z,22112.00
2023-05-07T11:21:14.628Z,22720.00
2023-05-07T11:22:14.626Z,22240.00
2023-05-07T11:23:14.619Z,22528.00
2023-05-07T11:24:14.607Z,21856.00
2023-05-07T11:25:14.583Z,22016.00
2023-05-07T11:26:14.593Z,21056.00
2023-05-07T11:27:14.565Z,23040.00
2023-05-07T11:28:14.581Z,22720.00
2023-05-07T11:29:14.559Z,22720.00
2023-05-07T11:30:14.640Z,22944.00
2023-05-07T11:31:14.572Z,22848.00
2023-05-07T11:32:14.688Z,22912.00
2023-05-07T11:33:14.543Z,22848.00
2023-05-07T11:34:14.487Z,22656.00
2023-05-07T11:35:14.473Z,22688.00
2023-05-07T11:36:14.469Z,22560.00
2023-05-07T11:37:14.452Z,22624.00
2023-05-07T11:38:14.453Z,22112.00
2023-05-07T11:39:14.443Z,22048.00
2023-05-07T11:40:14.455Z,22080.00
2023-05-07T11:41:14.420Z,22080.00
2023-05-07T11:42:14.403Z,22240.00
2023-05-07T11:43:14.391Z,22336.00
2023-05-07T11:44:14.382Z,22336.00
2023-05-07T11:45:14.604Z,22144.00
2023-05-07T11:46:14.437Z,22272.00
2023-05-07T11:47:14.346Z,22176.00
2023-05-07T11:48:14.364Z,22112.00
2023-05-07T11:49:14.336Z,22112.00
2023-05-07T11:50:14.325Z,21664.00
2023-05-07T11:51:14.299Z,21440.00
2023-05-07T11:52:14.297Z,21280.00
2023-05-07T11:53:14.437Z,20960.00
2023-05-07T11:54:14.271Z,20512.00
2023-05-07T11:55:14.375Z,19936.00
2023-05-07T11:56:14.250Z,19200.00
2023-05-07T11:57:14.245Z,18304.00
2023-05-07T11:58:14.239Z,17760.00
2023-05-07T11:59:14.219Z,18080.00
2023-05-07T12:00:14.224Z,18048.00
2023-05-07T12:01:14.199Z,17920.00
2023-05-07T12:02:14.234Z,16308.00
2023-05-07T12:03:14.249Z,16264.00
2023-05-07T12:04:14.256Z,16376.00
2023-05-07T12:05:14.590Z,16096.00
2023-05-07T12:06:14.162Z,16368.00
2023-05-07T12:07:14.134Z,16832.00
2023-05-07T12:08:14.144Z,18208.00
2023-05-07T12:09:14.222Z,17632.00
2023-05-07T12:10:14.115Z,17920.00
2023-05-07T12:11:14.088Z,17536.00
2023-05-07T12:12:14.092Z,16864.00
2023-05-07T12:13:14.109Z,16992.00
2023-05-07T12:14:14.052Z,17600.00
2023-05-07T12:15:14.260Z,18112.00
2023-05-07T12:16:14.096Z,18656.00
2023-05-07T12:17:14.229Z,19200.00
2023-05-07T12:18:14.057Z,19584.00
2023-05-07T12:19:15.685Z,20352.00
2023-05-07T12:20:13.990Z,20192.00
2023-05-07T12:21:14.013Z,19616.00